createdAt,value
2022-09-25T00:00:58.056Z,0
2022-09-25T00:01:58.992Z,0
2022-09-25T00:02:58.902Z,0
2022-09-25T00:03:58.225Z,0
2022-09-25T00:04:58.385Z,0
2022-09-25T00:05:57.876Z,0
2022-09-25T00:06:58.089Z,0
2022-09-25T00:07:58.332Z,0
2022-09-25T00:08:58.072Z,0
2022-09-25T00:09:58.232Z,0
2022-09-25T00:10:58.242Z,0
2022-09-25T00:11:58.210Z,0
2022-09-25T00:12:57.945Z,0
2022-09-25T00:13:58.185Z,0
2022-09-25T00:14:58.173Z,0
2022-09-25T00:15:58.180Z,0
2022-09-25T00:16:58.263Z,0
2022-09-25T00:17:57.636Z,0
2022-09-25T00:18:57.894Z,0
2022-09-25T00:19:58.501Z,0
2022-09-25T00:20:58.126Z,0
2022-09-25T00:21:57.928Z,0
2022-09-25T00:22:58.096Z,0
2022-09-25T00:23:57.815Z,0
2022-09-25T00:24:58.069Z,0
2022-09-25T00:25:57.780Z,0
2022-09-25T00:26:57.788Z,0
2022-09-25T00:27:57.810Z,0
2022-09-25T00:28:58.021Z,0
2022-09-25T00:29:57.497Z,0
2022-09-25T00:30:58.222Z,0
2022-09-25T00:31:58.005Z,0
2022-09-25T00:32:57.999Z,0
2022-09-25T00:33:57.962Z,0
2022-09-25T00:34:57.710Z,0
2022-09-25T00:35:58.115Z,0
2022-09-25T00:36:57.409Z,0
2022-09-25T00:37:58.196Z,0
2022-09-25T00:38:57.899Z,0
2022-09-25T00:39:57.627Z,0
2022-09-25T00:40:58.271Z,0
2022-09-25T00:41:58.113Z,0
2022-09-25T00:42:57.591Z,0
2022-09-25T00:43:57.576Z,0
2022-09-25T00:44:57.596Z,0
2022-09-25T00:45:58.407Z,0
2022-09-25T00:46:58.050Z,0
2022-09-25T00:47:57.538Z,0
2022-09-25T00:48:57.268Z,0
2022-09-25T00:49:57.008Z,0
2022-09-25T00:50:57.503Z,0
2022-09-25T00:52:02.293Z,0
2022-09-25T00:52:57.474Z,0
2022-09-25T00:53:57.765Z,0
2022-09-25T00:54:57.187Z,0
2022-09-25T00:55:57.691Z,0
2022-09-25T00:56:57.684Z,0
2022-09-25T00:57:57.931Z,0
2022-09-25T00:58:57.661Z,0
2022-09-25T00:59:57.708Z,0
2022-09-25T01:00:57.530Z,0
2022-09-25T01:01:57.635Z,0
2022-09-25T01:02:57.961Z,0
2022-09-25T01:03:57.861Z,0
2022-09-25T01:04:58.128Z,0
2022-09-25T01:05:57.875Z,0
2022-09-25T01:06:57.324Z,0
2022-09-25T01:07:57.666Z,0
2022-09-25T01:08:57.563Z,0
2022-09-25T01:09:57.560Z,0
2022-09-25T01:10:57.275Z,0
2022-09-25T01:11:57.771Z,0
2022-09-25T01:12:57.257Z,0
2022-09-25T01:13:57.243Z,0
2022-09-25T01:14:57.222Z,0
2022-09-25T01:15:56.697Z,0
2022-09-25T01:16:57.096Z,0
2022-09-25T01:17:57.442Z,0
2022-09-25T01:18:56.927Z,0
2022-09-25T01:19:59.933Z,0
2022-09-25T01:20:57.406Z,0
2022-09-25T01:21:57.406Z,0
2022-09-25T01:22:56.879Z,0
2022-09-25T01:23:57.471Z,0
2022-09-25T01:24:57.354Z,0
2022-09-25T01:25:57.637Z,0
2022-09-25T01:26:57.333Z,0
2022-09-25T01:27:57.317Z,0
2022-09-25T01:28:57.056Z,0
2022-09-25T01:29:57.313Z,0
2022-09-25T01:30:57.658Z,0
2022-09-25T01:31:56.775Z,0
2022-09-25T01:32:57.266Z,0
2022-09-25T01:34:28.825Z,0
2022-09-25T01:34:56.988Z,0
2022-09-25T01:35:57.247Z,0
2022-09-25T01:36:57.219Z,0
2022-09-25T01:37:58.099Z,0
2022-09-25T01:38:58.080Z,0
2022-09-25T01:39:58.183Z,0
2022-09-25T01:40:58.127Z,0
2022-09-25T01:41:57.567Z,0
2022-09-25T01:42:58.035Z,0
2022-09-25T01:43:58.024Z,0
2022-09-25T01:44:58.022Z,0
2022-09-25T01:45:58.062Z,0
2022-09-25T01:46:57.729Z,0
2022-09-25T01:47:57.734Z,0
2022-09-25T01:48:57.224Z,0
2022-09-25T01:49:57.698Z,0
2022-09-25T01:50:57.946Z,0
2022-09-25T01:51:59.991Z,0
2022-09-25T01:52:57.916Z,0
2022-09-25T01:53:57.903Z,0
2022-09-25T01:54:57.953Z,0
2022-09-25T01:55:58.083Z,0
2022-09-25T01:56:57.616Z,0
2022-09-25T01:57:57.884Z,0
2022-09-25T01:58:57.589Z,0
2022-09-25T01:59:58.265Z,0
2022-09-25T02:00:58.619Z,0
2022-09-25T02:01:58.285Z,0
2022-09-25T02:02:59.087Z,0
2022-09-25T02:03:58.205Z,0
2022-09-25T02:04:58.186Z,0
2022-09-25T02:05:58.440Z,0
2022-09-25T02:06:58.180Z,0
2022-09-25T02:07:57.908Z,0
2022-09-25T02:08:58.142Z,0
2022-09-25T02:09:58.380Z,0
2022-09-25T02:10:58.378Z,0
2022-09-25T02:11:58.541Z,0
2022-09-25T02:12:58.106Z,0
2022-09-25T02:13:57.846Z,0
2022-09-25T02:14:58.070Z,0
2022-09-25T02:15:58.307Z,0
2022-09-25T02:16:58.688Z,0
2022-09-25T02:17:58.291Z,0
2022-09-25T02:18:58.541Z,0
2022-09-25T02:19:57.744Z,0
2022-09-25T02:20:58.257Z,0
2022-09-25T02:21:57.980Z,0
2022-09-25T02:22:58.491Z,0
2022-09-25T02:23:58.214Z,0
2022-09-25T02:25:04.345Z,0
2022-09-25T02:25:57.928Z,0
2022-09-25T02:26:57.923Z,0
2022-09-25T02:27:58.600Z,0
2022-09-25T02:28:58.160Z,0
2022-09-25T02:29:58.173Z,0
2022-09-25T02:30:58.547Z,0
2022-09-25T02:31:58.167Z,0
2022-09-25T02:32:57.844Z,0
2022-09-25T02:33:57.828Z,0
2022-09-25T02:34:58.078Z,0
2022-09-25T02:35:57.823Z,0
2022-09-25T02:36:58.053Z,0
2022-09-25T02:37:57.522Z,0
2022-09-25T02:38:58.029Z,0
2022-09-25T02:39:57.763Z,0
2022-09-25T02:40:58.604Z,0
2022-09-25T02:41:57.992Z,0
2022-09-25T02:42:57.981Z,0
2022-09-25T02:43:58.223Z,0
2022-09-25T02:44:57.955Z,0
2022-09-25T02:45:58.194Z,0
2022-09-25T02:46:57.411Z,0
2022-09-25T02:47:57.673Z,0
2022-09-25T02:48:57.908Z,0
2022-09-25T02:49:57.641Z,0
2022-09-25T02:50:57.769Z,0
2022-09-25T02:51:57.862Z,0
2022-09-25T02:52:57.849Z,0
2022-09-25T02:53:57.850Z,0
2022-09-25T02:54:57.576Z,0
2022-09-25T02:55:57.306Z,0
2022-09-25T02:57:04.093Z,0
2022-09-25T02:57:57.809Z,0
2022-09-25T02:58:57.516Z,0
2022-09-25T02:59:58.112Z,0
2022-09-25T03:00:58.142Z,0
2022-09-25T03:01:58.308Z,0
2022-09-25T03:03:02.212Z,0
2022-09-25T03:03:57.720Z,0
2022-09-25T03:04:57.447Z,0
2022-09-25T03:05:58.117Z,0
2022-09-25T03:06:57.682Z,0
2022-09-25T03:07:57.416Z,0
2022-09-25T03:08:57.395Z,0
2022-09-25T03:09:57.124Z,0
2022-09-25T03:10:57.364Z,0
2022-09-25T03:11:57.351Z,0
2022-09-25T03:12:57.853Z,0
2022-09-25T03:13:57.321Z,0
2022-09-25T03:14:57.054Z,0
2022-09-25T03:15:58.074Z,0
2022-09-25T03:16:57.713Z,0
2022-09-25T03:17:57.587Z,0
2022-09-25T03:18:57.522Z,0
2022-09-25T03:19:57.503Z,0
2022-09-25T03:20:56.983Z,0
2022-09-25T03:21:57.241Z,0
2022-09-25T03:22:56.956Z,0
2022-09-25T03:23:57.455Z,0
2022-09-25T03:24:56.931Z,0
2022-09-25T03:25:59.562Z,0
2022-09-25T03:26:56.901Z,0
2022-09-25T03:27:57.147Z,0
2022-09-25T03:28:57.672Z,0
2022-09-25T03:29:57.116Z,0
2022-09-25T03:30:57.611Z,0
2022-09-25T03:31:57.545Z,0
2022-09-25T03:32:57.331Z,0
2022-09-25T03:50:11.918Z,0
2022-09-25T03:51:11.185Z,0
2022-09-25T03:52:11.269Z,0
2022-09-25T03:53:11.259Z,0
2022-09-25T03:54:11.893Z,0
2022-09-25T03:55:11.223Z,0
2022-09-25T03:56:11.221Z,0
2022-09-25T03:57:11.447Z,0
2022-09-25T03:58:10.956Z,0
2022-09-25T03:59:11.165Z,0
2022-09-25T04:00:11.416Z,0
2022-09-25T04:01:11.881Z,0
2022-09-25T04:02:11.228Z,0
2022-09-25T04:03:11.106Z,0
2022-09-25T04:04:12.149Z,0
2022-09-25T04:05:11.114Z,0
2022-09-25T04:06:11.731Z,0
2022-09-25T04:07:10.802Z,0
2022-09-25T04:08:11.298Z,0
2022-09-25T04:09:11.025Z,0
2022-09-25T04:10:11.523Z,0
2022-09-25T04:11:10.745Z,0
2022-09-25T04:12:10.987Z,0
2022-09-25T04:13:11.488Z,0
2022-09-25T04:14:11.577Z,0
2022-09-25T04:15:11.199Z,0
2022-09-25T04:16:10.982Z,0
2022-09-25T04:17:11.435Z,0
2022-09-25T04:18:15.073Z,0
2022-09-25T04:19:11.420Z,0
2022-09-25T04:20:11.397Z,0
2022-09-25T04:21:10.617Z,0
2022-09-25T04:22:11.503Z,0
2022-09-25T04:23:11.107Z,0
2022-09-25T04:24:11.206Z,0
2022-09-25T04:25:11.069Z,0
2022-09-25T04:26:10.799Z,0
2022-09-25T04:27:11.326Z,0
2022-09-25T04:28:10.514Z,0
2022-09-25T04:29:11.088Z,0
2022-09-25T04:30:10.752Z,0
2022-09-25T04:31:11.846Z,0
2022-09-25T04:32:11.047Z,0
2022-09-25T04:33:10.968Z,0
2022-09-25T04:34:10.929Z,0
2022-09-25T04:35:10.683Z,0
2022-09-25T04:36:10.664Z,0
2022-09-25T04:37:10.909Z,0
2022-09-25T04:38:11.273Z,0
2022-09-25T04:39:10.627Z,0
2022-09-25T04:40:11.272Z,0
2022-09-25T04:41:10.918Z,0
2022-09-25T04:42:11.111Z,0
2022-09-25T04:43:10.334Z,0
2022-09-25T04:44:10.854Z,0
2022-09-25T04:45:11.073Z,0
2022-09-25T04:46:13.287Z,0
2022-09-25T04:47:10.259Z,0
2022-09-25T04:48:10.506Z,0
2022-09-25T04:49:10.239Z,0
2022-09-25T04:50:10.502Z,0
2022-09-25T04:51:10.727Z,0
2022-09-25T04:52:10.459Z,0
2022-09-25T04:53:10.447Z,0
2022-09-25T04:54:11.319Z,0
2022-09-25T04:55:10.934Z,0
2022-09-25T04:56:17.932Z,0
2022-09-25T04:57:10.137Z,0
2022-09-25T04:58:10.368Z,0
2022-09-25T04:59:10.356Z,0
2022-09-25T05:00:10.603Z,5
2022-09-25T05:01:11.135Z,5
2022-09-25T05:02:10.999Z,5
2022-09-25T05:03:11.781Z,5
2022-09-25T05:04:18.178Z,5
2022-09-25T05:05:10.789Z,5
2022-09-25T05:06:10.014Z,5
2022-09-25T05:07:09.993Z,10
2022-09-25T05:08:10.503Z,10
2022-09-25T05:09:10.217Z,10
2022-09-25T05:10:10.846Z,10
2022-09-25T05:11:10.459Z,10
2022-09-25T05:12:10.434Z,10
2022-09-25T05:13:10.434Z,10
2022-09-25T05:14:10.947Z,10
2022-09-25T05:15:10.698Z,10
2022-09-25T05:16:10.897Z,10
2022-09-25T05:17:10.619Z,15
2022-09-25T05:18:09.859Z,15
2022-09-25T05:19:10.095Z,15
2022-09-25T05:20:09.822Z,15
2022-09-25T05:21:10.579Z,15
2022-09-25T05:22:10.301Z,15
2022-09-25T05:23:10.037Z,15
2022-09-25T05:24:10.615Z,20
2022-09-25T05:25:10.363Z,20
2022-09-25T05:26:10.723Z,20
2022-09-25T05:27:10.237Z,25
2022-09-25T05:28:10.245Z,25
2022-09-25T05:29:10.218Z,25
2022-09-25T05:30:09.945Z,25
2022-09-25T05:31:10.532Z,25
2022-09-25T05:32:10.181Z,30
2022-09-25T05:33:09.640Z,30
2022-09-25T05:34:10.039Z,30
2022-09-25T05:35:10.143Z,30
2022-09-25T05:36:09.919Z,35
2022-09-25T05:37:09.355Z,35
2022-09-25T05:38:10.089Z,35
2022-09-25T05:39:15.666Z,35
2022-09-25T05:40:10.366Z,40
2022-09-25T05:41:10.137Z,40
2022-09-25T05:42:10.430Z,35
2022-09-25T05:43:09.772Z,35
2022-09-25T05:44:10.157Z,35
2022-09-25T05:45:16.556Z,35
2022-09-25T05:46:09.860Z,35
2022-09-25T05:47:09.972Z,30
2022-09-25T05:48:09.725Z,30
2022-09-25T05:49:09.942Z,30
2022-09-25T05:50:09.680Z,30
2022-09-25T05:51:09.677Z,35
2022-09-25T05:52:09.910Z,35
2022-09-25T05:53:09.406Z,35
2022-09-25T05:54:10.138Z,35
2022-09-25T05:55:09.883Z,35
2022-09-25T05:56:09.601Z,35
2022-09-25T05:57:09.843Z,35
2022-09-25T05:58:10.408Z,40
2022-09-25T05:59:09.051Z,40
2022-09-25T06:00:09.296Z,40
2022-09-25T06:01:09.546Z,40
2022-09-25T06:02:09.666Z,40
2022-09-25T06:03:10.045Z,45
2022-09-25T06:04:09.859Z,45
2022-09-25T06:05:09.760Z,50
2022-09-25T06:06:09.734Z,50
2022-09-25T06:07:09.712Z,55
2022-09-25T06:08:09.704Z,55
2022-09-25T06:09:09.708Z,60
2022-09-25T06:10:09.704Z,60
2022-09-25T06:11:09.192Z,65
2022-09-25T06:12:09.650Z,70
2022-09-25T06:13:09.909Z,70
2022-09-25T06:14:10.218Z,75
2022-09-25T06:15:09.149Z,75
2022-09-25T06:16:09.758Z,80
2022-09-25T06:17:09.599Z,85
2022-09-25T06:18:09.337Z,85
2022-09-25T06:19:09.071Z,90
2022-09-25T06:20:16.042Z,90
2022-09-25T06:21:09.564Z,95
2022-09-25T06:22:09.276Z,95
2022-09-25T06:23:09.020Z,100
2022-09-25T06:24:09.444Z,100
2022-09-25T06:25:09.249Z,105
2022-09-25T06:26:09.499Z,110
2022-09-25T06:27:09.476Z,110
2022-09-25T06:28:09.209Z,115
2022-09-25T06:29:13.058Z,115
2022-09-25T06:30:09.714Z,115
2022-09-25T06:31:09.297Z,115
2022-09-25T06:32:09.417Z,115
2022-09-25T06:33:09.148Z,115
2022-09-25T06:34:09.063Z,115
2022-09-25T06:35:09.377Z,115
2022-09-25T06:36:09.618Z,115
2022-09-25T06:37:08.851Z,115
2022-09-25T06:38:09.606Z,120
2022-09-25T06:39:09.344Z,120
2022-09-25T06:40:09.343Z,120
2022-09-25T06:41:09.950Z,120
2022-09-25T06:42:09.297Z,120
2022-09-25T06:43:09.539Z,120
2022-09-25T06:44:08.657Z,120
2022-09-25T06:45:09.447Z,120
2022-09-25T06:46:09.676Z,120
2022-09-25T06:47:09.436Z,125
2022-09-25T06:48:09.687Z,125
2022-09-25T06:49:09.165Z,125
2022-09-25T06:50:09.401Z,130
2022-09-25T06:51:09.394Z,135
2022-09-25T06:52:09.126Z,140
2022-09-25T06:53:09.115Z,145
2022-09-25T06:54:09.805Z,145
2022-09-25T06:55:09.872Z,145
2022-09-25T06:56:09.982Z,140
2022-09-25T06:57:09.597Z,140
2022-09-25T06:58:09.059Z,135
2022-09-25T06:59:09.057Z,130
2022-09-25T07:00:09.823Z,130
2022-09-25T07:01:15.257Z,140
2022-09-25T07:02:10.716Z,135
2022-09-25T07:03:10.111Z,140
2022-09-25T07:04:09.655Z,140
2022-09-25T07:05:09.779Z,145
2022-09-25T07:06:09.500Z,145
2022-09-25T07:07:08.966Z,150
2022-09-25T07:08:09.218Z,150
2022-09-25T07:09:09.751Z,150
2022-09-25T07:10:09.035Z,155
2022-09-25T07:11:09.187Z,155
2022-09-25T07:12:09.434Z,155
2022-09-25T07:13:09.426Z,155
2022-09-25T07:14:09.341Z,155
2022-09-25T07:15:09.394Z,155
2022-09-25T07:16:10.190Z,155
2022-09-25T07:17:09.587Z,155
2022-09-25T07:18:08.877Z,150
2022-09-25T07:19:09.376Z,150
2022-09-25T07:20:09.352Z,145
2022-09-25T07:21:09.370Z,145
2022-09-25T07:22:09.079Z,140
2022-09-25T07:23:09.310Z,140
2022-09-25T07:24:09.334Z,135
2022-09-25T07:25:09.595Z,140
2022-09-25T07:26:09.071Z,135
2022-09-25T07:27:09.276Z,130
2022-09-25T07:28:09.007Z,125
2022-09-25T07:29:09.251Z,125
2022-09-25T07:30:09.636Z,120
2022-09-25T07:31:09.763Z,120
2022-09-25T07:32:09.631Z,120
2022-09-25T07:33:10.296Z,120
2022-09-25T07:34:09.871Z,120
2022-09-25T07:35:09.589Z,120
2022-09-25T07:36:09.574Z,120
2022-09-25T07:37:09.819Z,120
2022-09-25T07:38:09.548Z,120
2022-09-25T07:39:10.020Z,120
2022-09-25T07:40:10.121Z,120
2022-09-25T07:41:09.518Z,120
2022-09-25T07:42:09.769Z,120
2022-09-25T07:43:09.538Z,115
2022-09-25T07:44:52.071Z,115
2022-09-25T07:45:08.983Z,115
2022-09-25T07:46:10.461Z,115
2022-09-25T07:47:09.478Z,115
2022-09-25T07:48:09.705Z,115
2022-09-25T07:49:10.048Z,120
2022-09-25T07:50:15.487Z,120
2022-09-25T07:51:09.695Z,120
2022-09-25T07:52:09.667Z,120
2022-09-25T07:53:09.405Z,120
2022-09-25T07:54:09.584Z,120
2022-09-25T07:55:09.896Z,120
2022-09-25T07:56:14.642Z,125
2022-09-25T07:57:09.631Z,120
2022-09-25T07:58:09.364Z,115
2022-09-25T07:59:09.619Z,120
2022-09-25T08:00:09.090Z,120
2022-09-25T08:01:09.817Z,115
2022-09-25T08:02:09.957Z,115
2022-09-25T08:03:09.906Z,115
2022-09-25T08:04:09.590Z,115
2022-09-25T08:05:09.705Z,115
2022-09-25T08:06:09.829Z,115
2022-09-25T08:07:09.026Z,110
2022-09-25T08:08:09.782Z,115
2022-09-25T08:09:15.854Z,115
2022-09-25T08:10:09.004Z,120
2022-09-25T08:11:09.511Z,120
2022-09-25T08:12:09.738Z,125
2022-09-25T08:13:09.217Z,130
2022-09-25T08:14:09.246Z,135
2022-09-25T08:15:09.471Z,140
2022-09-25T08:16:09.617Z,140
2022-09-25T08:17:09.442Z,145
2022-09-25T08:18:09.172Z,145
2022-09-25T08:19:08.913Z,145
2022-09-25T08:20:09.192Z,150
2022-09-25T08:21:09.761Z,155
2022-09-25T08:22:09.416Z,160
2022-09-25T08:23:09.132Z,165
2022-09-25T08:24:09.763Z,165
2022-09-25T08:25:09.357Z,170
2022-09-25T08:26:09.103Z,170
2022-09-25T08:27:09.609Z,170
2022-09-25T08:28:09.603Z,170
2022-09-25T08:29:09.094Z,170
2022-09-25T08:30:09.352Z,165
2022-09-25T08:31:09.961Z,165
2022-09-25T08:32:08.782Z,160
2022-09-25T08:33:14.599Z,155
2022-09-25T08:35:00.145Z,145
2022-09-25T08:36:10.350Z,140
2022-09-25T08:37:10.696Z,140
2022-09-25T08:38:10.861Z,135
2022-09-25T08:39:10.831Z,140
2022-09-25T08:40:10.733Z,140
2022-09-25T08:41:11.158Z,145
2022-09-25T08:42:10.049Z,145
2022-09-25T08:43:10.288Z,145
2022-09-25T08:44:10.185Z,150
2022-09-25T08:45:29.965Z,155
2022-09-25T08:46:10.941Z,150
2022-09-25T08:47:10.244Z,155
2022-09-25T08:48:10.241Z,160
2022-09-25T08:49:10.001Z,165
2022-09-25T08:50:10.239Z,170
2022-09-25T08:51:10.472Z,170
2022-09-25T08:52:10.467Z,170
2022-09-25T08:53:10.888Z,165
2022-09-25T08:54:10.865Z,165
2022-09-25T08:55:10.183Z,155
2022-09-25T08:56:09.925Z,150
2022-09-25T08:57:10.158Z,150
2022-09-25T08:58:10.413Z,150
2022-09-25T08:59:10.402Z,145
2022-09-25T09:00:12.186Z,140
2022-09-25T09:01:11.056Z,135
2022-09-25T09:02:10.222Z,130
2022-09-25T09:03:09.900Z,125
2022-09-25T09:04:10.275Z,120
2022-09-25T09:05:10.607Z,120
2022-09-25T09:06:09.825Z,115
2022-09-25T09:07:35.449Z,115
2022-09-25T09:08:09.562Z,110
2022-09-25T09:09:10.422Z,110
2022-09-25T09:10:10.592Z,105
2022-09-25T09:11:16.143Z,105
2022-09-25T09:12:09.787Z,100
2022-09-25T09:13:10.290Z,100
2022-09-25T09:14:10.342Z,100
2022-09-25T09:15:09.754Z,105
2022-09-25T09:16:10.639Z,105
2022-09-25T09:17:10.511Z,105
2022-09-25T09:18:09.990Z,105
2022-09-25T09:19:10.491Z,105
2022-09-25T09:20:09.966Z,105
2022-09-25T09:21:09.956Z,105
2022-09-25T09:22:11.106Z,105
2022-09-25T09:23:15.702Z,105
2022-09-25T09:24:10.324Z,100
2022-09-25T09:25:10.544Z,100
2022-09-25T09:26:09.942Z,100
2022-09-25T09:27:10.424Z,100
2022-09-25T09:28:09.890Z,105
2022-09-25T09:29:09.902Z,105
2022-09-25T09:30:14.728Z,105
2022-09-25T09:31:10.284Z,110
2022-09-25T09:32:09.943Z,110
2022-09-25T09:33:09.858Z,110
2022-09-25T09:34:10.489Z,115
2022-09-25T09:35:16.064Z,120
2022-09-25T09:36:09.838Z,120
2022-09-25T09:37:09.934Z,125
2022-09-25T09:38:09.810Z,130
2022-09-25T09:39:09.808Z,135
2022-09-25T09:40:09.842Z,140
2022-09-25T09:41:10.133Z,135
2022-09-25T09:42:10.406Z,140
2022-09-25T09:43:10.277Z,140
2022-09-25T09:44:10.261Z,140
2022-09-25T09:45:10.015Z,140
2022-09-25T09:46:10.430Z,140
2022-09-25T09:47:09.997Z,135
2022-09-25T09:48:09.718Z,140
2022-09-25T09:49:09.968Z,140
2022-09-25T09:50:10.217Z,140
2022-09-25T09:51:09.811Z,145
2022-09-25T09:52:09.447Z,150
2022-09-25T09:53:09.953Z,155
2022-09-25T09:54:09.625Z,160
2022-09-25T09:55:09.408Z,170
2022-09-25T09:56:13.725Z,185
2022-09-25T09:57:09.958Z,180
2022-09-25T09:58:09.915Z,185
2022-09-25T09:59:09.631Z,185
2022-09-25T10:00:14.627Z,185
2022-09-25T10:02:01.478Z,180
2022-09-25T10:03:11.682Z,175
2022-09-25T10:04:11.870Z,165
2022-09-25T10:05:11.429Z,160
2022-09-25T10:06:11.438Z,155
2022-09-25T10:07:11.406Z,155
2022-09-25T10:08:11.154Z,145
2022-09-25T10:09:11.390Z,145
2022-09-25T10:10:10.907Z,140
2022-09-25T10:11:11.116Z,140
2022-09-25T10:12:11.201Z,145
2022-09-25T10:13:15.513Z,140
2022-09-25T10:14:11.615Z,140
2022-09-25T10:15:10.840Z,145
2022-09-25T10:16:10.913Z,145
2022-09-25T10:17:11.073Z,145
2022-09-25T10:18:11.071Z,145
2022-09-25T10:19:11.573Z,140
2022-09-25T10:20:10.793Z,140
2022-09-25T10:21:11.062Z,145
2022-09-25T10:22:12.725Z,145
2022-09-25T10:23:16.653Z,145
2022-09-25T10:24:11.598Z,135
2022-09-25T10:25:11.704Z,130
2022-09-25T10:26:13.964Z,130
2022-09-25T10:27:10.787Z,130
2022-09-25T10:28:11.698Z,130
2022-09-25T10:29:11.581Z,130
2022-09-25T10:30:11.336Z,130
2022-09-25T10:31:11.641Z,130
2022-09-25T10:32:11.013Z,130
2022-09-25T10:33:11.321Z,125
2022-09-25T10:34:11.083Z,120
2022-09-25T10:35:11.248Z,120
2022-09-25T10:36:11.234Z,125
2022-09-25T10:37:11.474Z,135
2022-09-25T10:38:11.469Z,150
2022-09-25T10:39:56.797Z,160
2022-09-25T10:41:10.943Z,160
2022-09-25T10:42:10.926Z,160
2022-09-25T10:43:11.445Z,160
2022-09-25T10:44:11.396Z,160
2022-09-25T10:45:11.215Z,170
2022-09-25T10:46:11.628Z,175
2022-09-25T10:47:11.410Z,185
2022-09-25T10:48:10.882Z,195
2022-09-25T10:49:11.019Z,205
2022-09-25T10:50:11.207Z,210
2022-09-25T10:51:11.157Z,220
2022-09-25T10:52:10.865Z,225
2022-09-25T10:53:10.846Z,230
2022-09-25T10:54:11.093Z,240
2022-09-25T10:55:10.847Z,245
2022-09-25T10:56:10.985Z,250
2022-09-25T10:57:10.825Z,260
2022-09-25T10:58:10.576Z,270
2022-09-25T10:59:11.167Z,280
2022-09-25T11:00:10.671Z,290
2022-09-25T11:01:11.446Z,290
2022-09-25T11:02:11.651Z,290
2022-09-25T11:03:18.386Z,290
2022-09-25T11:04:11.013Z,285
2022-09-25T11:05:10.492Z,290
2022-09-25T11:06:11.010Z,290
2022-09-25T11:07:10.774Z,295
2022-09-25T11:08:10.737Z,295
2022-09-25T11:09:10.909Z,295
2022-09-25T11:10:11.011Z,295
2022-09-25T11:11:11.242Z,290
2022-09-25T11:12:10.697Z,290
2022-09-25T11:13:10.696Z,285
2022-09-25T11:14:10.429Z,270
2022-09-25T11:15:10.677Z,265
2022-09-25T11:16:11.228Z,260
2022-09-25T11:17:11.603Z,260
2022-09-25T11:18:10.768Z,265
2022-09-25T11:19:22.047Z,265
2022-09-25T11:20:11.227Z,265
2022-09-25T11:21:11.148Z,265
2022-09-25T11:22:10.967Z,265
2022-09-25T11:23:10.656Z,270
2022-09-25T11:24:10.942Z,270
2022-09-25T11:25:10.749Z,275
2022-09-25T11:26:11.207Z,280
2022-09-25T11:27:10.873Z,280
2022-09-25T11:28:10.624Z,280
2022-09-25T11:29:10.378Z,280
2022-09-25T11:30:10.348Z,285
2022-09-25T11:31:11.170Z,285
2022-09-25T11:32:10.971Z,290
2022-09-25T11:33:10.610Z,290
2022-09-25T11:34:11.096Z,290
2022-09-25T11:35:10.899Z,290
2022-09-25T11:36:10.897Z,290
2022-09-25T11:37:10.038Z,290
2022-09-25T11:38:14.435Z,290
2022-09-25T11:39:10.823Z,290
2022-09-25T11:40:10.457Z,285
2022-09-25T11:41:10.758Z,275
2022-09-25T11:42:10.999Z,265
2022-09-25T11:43:10.741Z,255
2022-09-25T11:44:10.477Z,250
2022-09-25T11:45:10.761Z,250
2022-09-25T11:46:11.074Z,250
2022-09-25T11:47:10.516Z,255
2022-09-25T11:48:10.590Z,255
2022-09-25T11:49:17.972Z,255
2022-09-25T11:50:10.985Z,255
2022-09-25T11:51:11.093Z,260
2022-09-25T11:52:11.019Z,265
2022-09-25T11:53:11.004Z,265
2022-09-25T11:54:43.225Z,270
2022-09-25T11:55:10.992Z,270
2022-09-25T11:56:11.244Z,270
2022-09-25T11:57:10.995Z,270
2022-09-25T11:58:10.973Z,275
2022-09-25T11:59:10.967Z,285
2022-09-25T12:00:11.568Z,285
2022-09-25T12:01:11.166Z,290
2022-09-25T12:02:11.195Z,285
2022-09-25T12:03:11.203Z,285
2022-09-25T12:04:11.239Z,280
2022-09-25T12:05:11.233Z,280
2022-09-25T12:06:11.042Z,275
2022-09-25T12:07:10.403Z,280
2022-09-25T12:08:11.183Z,290
2022-09-25T12:09:11.160Z,290
2022-09-25T12:10:10.968Z,290
2022-09-25T12:11:11.193Z,290
2022-09-25T12:12:11.161Z,290
2022-09-25T12:13:10.880Z,280
2022-09-25T12:14:11.269Z,270
2022-09-25T12:15:10.881Z,265
2022-09-25T12:16:11.824Z,260
2022-09-25T12:17:10.865Z,255
2022-09-25T12:18:11.113Z,255
2022-09-25T12:19:11.116Z,260
2022-09-25T12:20:10.803Z,270
2022-09-25T12:21:10.977Z,285
2022-09-25T12:22:10.604Z,290
2022-09-25T12:23:11.348Z,295
2022-09-25T12:24:10.923Z,300
2022-09-25T12:25:11.333Z,300
2022-09-25T12:26:10.824Z,295
2022-09-25T12:27:10.802Z,290
2022-09-25T12:28:11.323Z,290
2022-09-25T12:29:11.051Z,290
2022-09-25T12:30:11.059Z,285
2022-09-25T12:31:15.213Z,285
2022-09-25T12:32:11.030Z,285
2022-09-25T12:33:10.519Z,285
2022-09-25T12:34:11.086Z,285
2022-09-25T12:35:11.084Z,275
2022-09-25T12:36:10.802Z,270
2022-09-25T12:37:11.168Z,265
2022-09-25T12:38:11.023Z,260
2022-09-25T12:39:10.994Z,255
2022-09-25T12:40:11.371Z,255
2022-09-25T12:41:10.729Z,255
2022-09-25T12:42:10.709Z,265
2022-09-25T12:43:10.977Z,270
2022-09-25T12:44:10.603Z,275
2022-09-25T12:45:10.704Z,275
2022-09-25T12:46:10.497Z,275
2022-09-25T12:47:10.432Z,270
2022-09-25T12:48:10.936Z,260
2022-09-25T12:49:10.934Z,260
2022-09-25T12:50:10.424Z,260
2022-09-25T12:51:14.429Z,255
2022-09-25T12:52:10.659Z,255
2022-09-25T12:53:11.220Z,260
2022-09-25T12:54:11.362Z,260
2022-09-25T12:55:10.391Z,260
2022-09-25T12:56:11.164Z,265
2022-09-25T12:57:11.935Z,270
2022-09-25T12:58:11.913Z,280
2022-09-25T12:59:11.138Z,275
2022-09-25T13:00:11.693Z,280
2022-09-25T13:01:11.938Z,285
2022-09-25T13:02:12.582Z,290
2022-09-25T13:03:12.145Z,290
2022-09-25T13:04:12.595Z,285
2022-09-25T13:05:11.879Z,280
2022-09-25T13:06:12.134Z,280
2022-09-25T13:07:11.924Z,285
2022-09-25T13:08:11.607Z,285
2022-09-25T13:09:11.899Z,290
2022-09-25T13:10:12.140Z,280
2022-09-25T13:11:11.844Z,275
2022-09-25T13:12:11.324Z,285
2022-09-25T13:13:17.974Z,295
2022-09-25T13:14:12.567Z,285
2022-09-25T13:15:11.823Z,285
2022-09-25T13:16:12.164Z,285
2022-09-25T13:17:11.302Z,285
2022-09-25T13:18:11.292Z,280
2022-09-25T13:19:12.052Z,265
2022-09-25T13:20:11.786Z,255
2022-09-25T13:21:11.276Z,245
2022-09-25T13:22:11.300Z,235
2022-09-25T13:23:12.088Z,210
2022-09-25T13:24:11.679Z,205
2022-09-25T13:25:11.630Z,195
2022-09-25T13:26:11.793Z,195
2022-09-25T13:27:11.615Z,195
2022-09-25T13:28:12.032Z,195
2022-09-25T13:29:11.479Z,190
2022-09-25T13:30:11.910Z,180
2022-09-25T13:31:18.676Z,175
2022-09-25T13:32:11.475Z,160
2022-09-25T13:33:11.473Z,155
2022-09-25T13:34:12.396Z,150
2022-09-25T13:35:13.277Z,155
2022-09-25T13:36:11.966Z,160
2022-09-25T13:37:11.443Z,160
2022-09-25T13:38:11.688Z,165
2022-09-25T13:39:11.480Z,165
2022-09-25T13:40:12.003Z,165
2022-09-25T13:41:12.023Z,170
2022-09-25T13:42:11.785Z,175
2022-09-25T13:43:11.677Z,170
2022-09-25T13:44:11.529Z,165
2022-09-25T13:45:11.914Z,165
2022-09-25T13:46:11.688Z,175
2022-09-25T13:47:10.880Z,175
2022-09-25T13:48:15.974Z,180
2022-09-25T13:49:11.414Z,180
2022-09-25T13:50:11.435Z,180
2022-09-25T13:51:11.616Z,185
2022-09-25T13:52:11.615Z,175
2022-09-25T13:53:11.111Z,170
2022-09-25T13:54:11.638Z,165
2022-09-25T13:55:11.648Z,155
2022-09-25T13:56:11.838Z,145
2022-09-25T13:57:11.722Z,140
2022-09-25T13:58:11.600Z,135
2022-09-25T13:59:11.674Z,130
2022-09-25T14:00:11.640Z,135
2022-09-25T14:01:12.019Z,150
2022-09-25T14:02:11.559Z,150
2022-09-25T14:03:11.794Z,150
2022-09-25T14:04:11.030Z,145
2022-09-25T14:05:11.279Z,145
2022-09-25T14:06:11.779Z,150
2022-09-25T14:07:11.778Z,150
2022-09-25T14:08:11.520Z,150
2022-09-25T14:09:11.895Z,155
2022-09-25T14:10:11.631Z,165
2022-09-25T14:11:11.968Z,160
2022-09-25T14:12:11.495Z,160
2022-09-25T14:13:16.663Z,160
2022-09-25T14:14:11.590Z,155
2022-09-25T14:15:11.483Z,150
2022-09-25T14:16:11.242Z,145
2022-09-25T14:17:11.203Z,140
2022-09-25T14:18:11.197Z,130
2022-09-25T14:19:11.783Z,120
2022-09-25T14:20:11.699Z,105
2022-09-25T14:21:10.919Z,105
2022-09-25T14:22:11.170Z,95
2022-09-25T14:23:11.422Z,95
2022-09-25T14:24:11.410Z,100
2022-09-25T14:25:11.176Z,100
2022-09-25T14:26:11.406Z,100
2022-09-25T14:27:11.691Z,100
2022-09-25T14:28:11.134Z,100